sensor_id;sensor_type;location;lat;lon;timestamp;temperature;humidity
12438;DHT22;6283;51.330;12.374;2023-10-09T00:01:45;12.90;1.00
12438;DHT22;6283;51.330;12.374;2023-10-09T00:04:12;12.90;1.00
12438;DHT22;6283;51.330;12.374;2023-10-09T00:06:39;12.90;1.00
12438;DHT22;6283;51.330;12.374;2023-10-09T00:09:08;12.80;1.00
12438;DHT22;6283;51.330;12.374;2023-10-09T00:11:55;13.10;1.00
12438;DHT22;6283;51.330;12.374;2023-10-09T00:14:31;13.00;1.00
12438;DHT22;6283;51.330;12.374;2023-10-09T00:17:04;13.00;1.00
12438;DHT22;6283;51.330;12.374;2023-10-09T00:19:36;13.00;1.00
12438;DHT22;6283;51.330;12.374;2023-10-09T00:22:02;12.80;1.00
12438;DHT22;6283;51.330;12.374;2023-10-09T00:24:47;12.90;1.00
12438;DHT22;6283;51.330;12.374;2023-10-09T00:27:15;12.90;1.00
12438;DHT22;6283;51.330;12.374;2023-10-09T00:29:42;12.80;1.00
12438;DHT22;6283;51.330;12.374;2023-10-09T00:32:12;12.80;1.00
12438;DHT22;6283;51.330;12.374;2023-10-09T00:34:53;12.80;1.00
12438;DHT22;6283;51.330;12.374;2023-10-09T00:37:23;12.80;1.00
12438;DHT22;6283;51.330;12.374;2023-10-09T00:39:51;13.00;1.00
12438;DHT22;6283;51.330;12.374;2023-10-09T00:42:24;12.80;1.00
12438;DHT22;6283;51.330;12.374;2023-10-09T00:44:55;12.90;1.00
12438;DHT22;6283;51.330;12.374;2023-10-09T00:47:21;13.10;1.00
12438;DHT22;6283;51.330;12.374;2023-10-09T00:50:00;13.10;1.00
12438;DHT22;6283;51.330;12.374;2023-10-09T00:52:50;13.10;1.00
12438;DHT22;6283;51.330;12.374;2023-10-09T00:55:27;13.10;1.00
12438;DHT22;6283;51.330;12.374;2023-10-09T00:58:03;13.10;1.00
12438;DHT22;6283;51.330;12.374;2023-10-09T01:00:35;13.10;1.00
12438;DHT22;6283;51.330;12.374;2023-10-09T01:03:11;13.10;1.00
12438;DHT22;6283;51.330;12.374;2023-10-09T01:08:23;13.10;1.00
12438;DHT22;6283;51.330;12.374;2023-10-09T01:11:18;13.00;1.00
12438;DHT22;6283;51.330;12.374;2023-10-09T01:13:46;13.10;1.00
12438;DHT22;6283;51.330;12.374;2023-10-09T01:16:12;13.10;1.00
12438;DHT22;6283;51.330;12.374;2023-10-09T01:18:42;13.00;1.00
12438;DHT22;6283;51.330;12.374;2023-10-09T01:21:11;13.00;1.00
12438;DHT22;6283;51.330;12.374;2023-10-09T01:23:44;12.90;1.00
12438;DHT22;6283;51.330;12.374;2023-10-09T01:26:30;13.10;1.00
12438;DHT22;6283;51.330;12.374;2023-10-09T01:29:00;13.00;1.00
12438;DHT22;6283;51.330;12.374;2023-10-09T01:31:26;13.20;1.00
12438;DHT22;6283;51.330;12.374;2023-10-09T01:33:53;13.00;1.00
12438;DHT22;6283;51.330;12.374;2023-10-09T01:36:25;13.10;1.00
12438;DHT22;6283;51.330;12.374;2023-10-09T01:38:59;13.30;1.00
12438;DHT22;6283;51.330;12.374;2023-10-09T01:41:25;13.20;1.00
12438;DHT22;6283;51.330;12.374;2023-10-09T01:43:50;13.00;1.00
12438;DHT22;6283;51.330;12.374;2023-10-09T01:46:18;13.10;1.00
12438;DHT22;6283;51.330;12.374;2023-10-09T01:48:45;13.00;1.00
12438;DHT22;6283;51.330;12.374;2023-10-09T01:51:15;12.90;1.00
12438;DHT22;6283;51.330;12.374;2023-10-09T01:53:44;13.00;1.00
12438;DHT22;6283;51.330;12.374;2023-10-09T01:56:13;13.20;1.00
12438;DHT22;6283;51.330;12.374;2023-10-09T01:58:41;12.80;1.00
12438;DHT22;6283;51.330;12.374;2023-10-09T02:01:08;12.80;1.00
12438;DHT22;6283;51.330;12.374;2023-10-09T02:03:34;12.80;1.00
12438;DHT22;6283;51.330;12.374;2023-10-09T02:06:02;13.20;1.00
12438;DHT22;6283;51.330;12.374;2023-10-09T02:08:44;12.90;1.00
12438;DHT22;6283;51.330;12.374;2023-10-09T02:11:15;13.00;1.00
12438;DHT22;6283;51.330;12.374;2023-10-09T02:13:50;13.00;1.00
12438;DHT22;6283;51.330;12.374;2023-10-09T02:16:22;12.90;1.00
12438;DHT22;6283;51.330;12.374;2023-10-09T02:18:54;12.90;1.00
12438;DHT22;6283;51.330;12.374;2023-10-09T02:21:24;12.90;1.00
12438;DHT22;6283;51.330;12.374;2023-10-09T02:24:05;13.00;1.00
12438;DHT22;6283;51.330;12.374;2023-10-09T02:26:51;13.20;1.00
12438;DHT22;6283;51.330;12.374;2023-10-09T02:29:17;12.80;1.00
12438;DHT22;6283;51.330;12.374;2023-10-09T02:31:43;13.10;1.00
12438;DHT22;6283;51.330;12.374;2023-10-09T02:34:18;12.90;1.00
12438;DHT22;6283;51.330;12.374;2023-10-09T02:36:47;13.20;1.00
12438;DHT22;6283;51.330;12.374;2023-10-09T02:39:24;12.90;1.00
12438;DHT22;6283;51.330;12.374;2023-10-09T02:41:54;13.20;1.00
12438;DHT22;6283;51.330;12.374;2023-10-09T02:44:32;13.20;1.00
12438;DHT22;6283;51.330;12.374;2023-10-09T02:47:04;13.20;1.00
12438;DHT22;6283;51.330;12.374;2023-10-09T02:49:37;12.90;1.00
12438;DHT22;6283;51.330;12.374;2023-10-09T02:52:05;13.20;1.00
12438;DHT22;6283;51.330;12.374;2023-10-09T02:54:33;13.00;1.00
12438;DHT22;6283;51.330;12.374;2023-10-09T02:57:07;13.10;1.00
12438;DHT22;6283;51.330;12.374;2023-10-09T02:59:33;13.00;1.00
12438;DHT22;6283;51.330;12.374;2023-10-09T03:01:59;13.10;1.00
12438;DHT22;6283;51.330;12.374;2023-10-09T03:04:27;12.90;1.00
12438;DHT22;6283;51.330;12.374;2023-10-09T03:06:56;13.10;1.00
12438;DHT22;6283;51.330;12.374;2023-10-09T03:09:23;13.10;1.00
12438;DHT22;6283;51.330;12.374;2023-10-09T03:11:57;13.00;1.00
12438;DHT22;6283;51.330;12.374;2023-10-09T03:14:32;13.10;1.00
12438;DHT22;6283;51.330;12.374;2023-10-09T03:17:00;13.20;1.00
12438;DHT22;6283;51.330;12.374;2023-10-09T03:19:28;13.30;1.00
12438;DHT22;6283;51.330;12.374;2023-10-09T03:21:54;13.10;1.00
12438;DHT22;6283;51.330;12.374;2023-10-09T03:24:23;13.20;1.00
12438;DHT22;6283;51.330;12.374;2023-10-09T03:26:48;13.30;1.00
12438;DHT22;6283;51.330;12.374;2023-10-09T03:29:15;13.20;1.00
12438;DHT22;6283;51.330;12.374;2023-10-09T03:31:44;13.10;1.00
12438;DHT22;6283;51.330;12.374;2023-10-09T03:34:12;13.40;1.00
12438;DHT22;6283;51.330;12.374;2023-10-09T03:36:37;13.20;1.00
12438;DHT22;6283;51.330;12.374;2023-10-09T03:39:04;13.20;1.00
12438;DHT22;6283;51.330;12.374;2023-10-09T03:41:44;13.10;1.00
12438;DHT22;6283;51.330;12.374;2023-10-09T03:44:13;13.10;1.00
12438;DHT22;6283;51.330;12.374;2023-10-09T03:46:39;13.20;1.00
12438;DHT22;6283;51.330;12.374;2023-10-09T03:49:04;13.10;1.00
12438;DHT22;6283;51.330;12.374;2023-10-09T03:51:36;13.10;1.00
12438;DHT22;6283;51.330;12.374;2023-10-09T03:54:03;13.00;1.00
12438;DHT22;6283;51.330;12.374;2023-10-09T03:56:33;13.20;1.00
12438;DHT22;6283;51.330;12.374;2023-10-09T03:58:59;13.10;1.00
12438;DHT22;6283;51.330;12.374;2023-10-09T04:01:25;13.20;1.00
12438;DHT22;6283;51.330;12.374;2023-10-09T04:03:55;13.10;1.00
12438;DHT22;6283;51.330;12.374;2023-10-09T04:06:24;13.10;1.00
12438;DHT22;6283;51.330;12.374;2023-10-09T04:11:49;12.90;1.00
12438;DHT22;6283;51.330;12.374;2023-10-09T04:14:34;13.00;32.90
12438;DHT22;6283;51.330;12.374;2023-10-09T04:17:00;12.80;82.30
12438;DHT22;6283;51.330;12.374;2023-10-09T04:19:54;12.80;99.90
12438;DHT22;6283;51.330;12.374;2023-10-09T04:22:39;12.90;99.90
12438;DHT22;6283;51.330;12.374;2023-10-09T04:25:08;12.80;99.90
12438;DHT22;6283;51.330;12.374;2023-10-09T04:27:40;12.70;99.90
12438;DHT22;6283;51.330;12.374;2023-10-09T04:30:07;12.80;99.90
12438;DHT22;6283;51.330;12.374;2023-10-09T04:32:33;13.00;99.90
12438;DHT22;6283;51.330;12.374;2023-10-09T04:35:00;12.90;99.90
12438;DHT22;6283;51.330;12.374;2023-10-09T04:37:45;12.80;99.90
12438;DHT22;6283;51.330;12.374;2023-10-09T04:40:18;12.90;1.00
12438;DHT22;6283;51.330;12.374;2023-10-09T04:43:02;13.00;1.00
12438;DHT22;6283;51.330;12.374;2023-10-09T04:45:38;12.80;1.00
12438;DHT22;6283;51.330;12.374;2023-10-09T04:48:22;13.00;1.00
12438;DHT22;6283;51.330;12.374;2023-10-09T04:51:04;12.90;1.00
12438;DHT22;6283;51.330;12.374;2023-10-09T04:53:46;12.90;1.00
12438;DHT22;6283;51.330;12.374;2023-10-09T04:56:30;12.60;1.00
12438;DHT22;6283;51.330;12.374;2023-10-09T04:58:58;12.80;1.00
12438;DHT22;6283;51.330;12.374;2023-10-09T05:01:33;12.80;1.00
12438;DHT22;6283;51.330;12.374;2023-10-09T05:04:09;12.90;1.00
12438;DHT22;6283;51.330;12.374;2023-10-09T05:06:52;13.00;1.00
12438;DHT22;6283;51.330;12.374;2023-10-09T05:09:22;12.70;1.00
12438;DHT22;6283;51.330;12.374;2023-10-09T05:11:48;12.70;4.00
12438;DHT22;6283;51.330;12.374;2023-10-09T05:14:20;12.80;57.90
12438;DHT22;6283;51.330;12.374;2023-10-09T05:16:53;12.70;99.90
12438;DHT22;6283;51.330;12.374;2023-10-09T05:19:26;13.00;99.90
12438;DHT22;6283;51.330;12.374;2023-10-09T05:22:10;12.60;99.90
12438;DHT22;6283;51.330;12.374;2023-10-09T05:25:08;12.60;99.90
12438;DHT22;6283;51.330;12.374;2023-10-09T05:27:41;12.80;1.00
12438;DHT22;6283;51.330;12.374;2023-10-09T05:30:16;12.90;1.00
12438;DHT22;6283;51.330;12.374;2023-10-09T05:32:54;12.70;1.00
12438;DHT22;6283;51.330;12.374;2023-10-09T05:35:24;12.80;1.00
12438;DHT22;6283;51.330;12.374;2023-10-09T05:38:06;12.70;1.00
12438;DHT22;6283;51.330;12.374;2023-10-09T05:40:41;12.70;20.50
12438;DHT22;6283;51.330;12.374;2023-10-09T05:43:09;12.60;99.90
12438;DHT22;6283;51.330;12.374;2023-10-09T05:45:54;12.80;99.90
12438;DHT22;6283;51.330;12.374;2023-10-09T05:48:40;12.70;1.00
12438;DHT22;6283;51.330;12.374;2023-10-09T05:51:06;12.50;1.00
12438;DHT22;6283;51.330;12.374;2023-10-09T05:53:34;12.60;3.90
12438;DHT22;6283;51.330;12.374;2023-10-09T05:56:09;12.80;99.90
12438;DHT22;6283;51.330;12.374;2023-10-09T05:58:53;12.80;1.00
12438;DHT22;6283;51.330;12.374;2023-10-09T06:01:39;12.70;1.00
12438;DHT22;6283;51.330;12.374;2023-10-09T06:04:17;12.60;99.90
12438;DHT22;6283;51.330;12.374;2023-10-09T06:06:45;12.90;99.90
12438;DHT22;6283;51.330;12.374;2023-10-09T06:09:12;12.60;1.00
12438;DHT22;6283;51.330;12.374;2023-10-09T06:11:39;12.80;1.00
12438;DHT22;6283;51.330;12.374;2023-10-09T06:14:05;12.90;1.00
12438;DHT22;6283;51.330;12.374;2023-10-09T06:16:41;12.80;38.60
12438;DHT22;6283;51.330;12.374;2023-10-09T06:19:07;12.90;99.90
12438;DHT22;6283;51.330;12.374;2023-10-09T06:21:40;13.00;1.00
12438;DHT22;6283;51.330;12.374;2023-10-09T06:24:26;12.80;1.00
12438;DHT22;6283;51.330;12.374;2023-10-09T06:26:59;12.90;1.00
12438;DHT22;6283;51.330;12.374;2023-10-09T06:29:28;12.90;1.00
12438;DHT22;6283;51.330;12.374;2023-10-09T06:32:20;12.70;1.00
12438;DHT22;6283;51.330;12.374;2023-10-09T06:34:54;12.80;99.90
12438;DHT22;6283;51.330;12.374;2023-10-09T06:37:46;12.70;1.00
12438;DHT22;6283;51.330;12.374;2023-10-09T06:40:48;12.80;1.00
12438;DHT22;6283;51.330;12.374;2023-10-09T06:43:47;13.00;6.40
12438;DHT22;6283;51.330;12.374;2023-10-09T06:46:18;12.80;99.90
12438;DHT22;6283;51.330;12.374;2023-10-09T06:48:50;13.00;99.90
12438;DHT22;6283;51.330;12.374;2023-10-09T06:51:22;12.80;1.00
12438;DHT22;6283;51.330;12.374;2023-10-09T06:53:54;12.90;1.00
12438;DHT22;6283;51.330;12.374;2023-10-09T06:56:25;12.80;1.00
12438;DHT22;6283;51.330;12.374;2023-10-09T06:59:01;12.80;1.00
12438;DHT22;6283;51.330;12.374;2023-10-09T07:01:41;12.80;1.00
12438;DHT22;6283;51.330;12.374;2023-10-09T07:04:12;12.80;1.00
12438;DHT22;6283;51.330;12.374;2023-10-09T07:06:48;12.90;38.00
12438;DHT22;6283;51.330;12.374;2023-10-09T07:09:15;13.00;76.00
12438;DHT22;6283;51.330;12.374;2023-10-09T07:11:46;13.00;99.90
12438;DHT22;6283;51.330;12.374;2023-10-09T07:14:21;13.00;99.90
12438;DHT22;6283;51.330;12.374;2023-10-09T07:19:29;13.10;99.90
12438;DHT22;6283;51.330;12.374;2023-10-09T07:22:07;13.20;99.90
12438;DHT22;6283;51.330;12.374;2023-10-09T07:25:02;13.10;99.90
12438;DHT22;6283;51.330;12.374;2023-10-09T07:27:41;13.30;99.90
12438;DHT22;6283;51.330;12.374;2023-10-09T07:30:12;13.20;99.90
12438;DHT22;6283;51.330;12.374;2023-10-09T07:32:53;13.20;99.90
12438;DHT22;6283;51.330;12.374;2023-10-09T07:35:21;13.20;99.90
12438;DHT22;6283;51.330;12.374;2023-10-09T07:38:05;13.30;99.90
12438;DHT22;6283;51.330;12.374;2023-10-09T07:40:40;13.20;99.90
12438;DHT22;6283;51.330;12.374;2023-10-09T07:43:29;13.30;99.90
12438;DHT22;6283;51.330;12.374;2023-10-09T07:46:03;13.20;99.90
12438;DHT22;6283;51.330;12.374;2023-10-09T07:48:29;13.20;99.90
12438;DHT22;6283;51.330;12.374;2023-10-09T07:51:12;13.40;99.90
12438;DHT22;6283;51.330;12.374;2023-10-09T07:53:37;13.30;99.90
12438;DHT22;6283;51.330;12.374;2023-10-09T07:56:13;13.40;99.90
12438;DHT22;6283;51.330;12.374;2023-10-09T07:58:49;13.40;99.90
12438;DHT22;6283;51.330;12.374;2023-10-09T08:01:15;13.60;99.90
12438;DHT22;6283;51.330;12.374;2023-10-09T08:03:47;13.30;99.90
12438;DHT22;6283;51.330;12.374;2023-10-09T08:06:13;13.40;99.90
12438;DHT22;6283;51.330;12.374;2023-10-09T08:08:57;13.40;99.90
12438;DHT22;6283;51.330;12.374;2023-10-09T08:11:42;13.40;99.90
12438;DHT22;6283;51.330;12.374;2023-10-09T08:14:11;13.60;99.90
12438;DHT22;6283;51.330;12.374;2023-10-09T08:16:46;13.40;99.90
12438;DHT22;6283;51.330;12.374;2023-10-09T08:19:11;13.60;99.90
12438;DHT22;6283;51.330;12.374;2023-10-09T08:21:56;13.60;99.90
12438;DHT22;6283;51.330;12.374;2023-10-09T08:24:40;13.60;99.90
12438;DHT22;6283;51.330;12.374;2023-10-09T08:27:09;13.80;99.90
12438;DHT22;6283;51.330;12.374;2023-10-09T08:29:53;13.60;99.90
12438;DHT22;6283;51.330;12.374;2023-10-09T08:32:39;13.80;99.90
12438;DHT22;6283;51.330;12.374;2023-10-09T08:35:08;14.00;99.90
12438;DHT22;6283;51.330;12.374;2023-10-09T08:37:55;13.70;99.90
12438;DHT22;6283;51.330;12.374;2023-10-09T08:40:42;13.90;99.90
12438;DHT22;6283;51.330;12.374;2023-10-09T08:43:21;13.80;99.90
12438;DHT22;6283;51.330;12.374;2023-10-09T08:48:13;13.90;99.90
12438;DHT22;6283;51.330;12.374;2023-10-09T08:50:45;13.60;99.90
12438;DHT22;6283;51.330;12.374;2023-10-09T08:53:11;13.60;99.90
12438;DHT22;6283;51.330;12.374;2023-10-09T08:55:38;14.00;99.90
12438;DHT22;6283;51.330;12.374;2023-10-09T08:58:04;13.90;99.90
12438;DHT22;6283;51.330;12.374;2023-10-09T09:00:42;14.00;99.90
12438;DHT22;6283;51.330;12.374;2023-10-09T09:03:13;13.90;99.90
12438;DHT22;6283;51.330;12.374;2023-10-09T09:05:41;14.00;99.90
12438;DHT22;6283;51.330;12.374;2023-10-09T09:08:22;14.00;99.90
12438;DHT22;6283;51.330;12.374;2023-10-09T09:10:59;14.00;99.90
12438;DHT22;6283;51.330;12.374;2023-10-09T09:13:40;13.90;99.90
12438;DHT22;6283;51.330;12.374;2023-10-09T09:16:20;13.80;99.90
12438;DHT22;6283;51.330;12.374;2023-10-09T09:18:50;14.00;99.90
12438;DHT22;6283;51.330;12.374;2023-10-09T09:21:29;13.90;99.90
12438;DHT22;6283;51.330;12.374;2023-10-09T09:24:01;13.90;99.90
12438;DHT22;6283;51.330;12.374;2023-10-09T09:26:36;14.00;99.90
12438;DHT22;6283;51.330;12.374;2023-10-09T09:29:13;13.90;99.90
12438;DHT22;6283;51.330;12.374;2023-10-09T09:31:52;14.00;99.90
12438;DHT22;6283;51.330;12.374;2023-10-09T09:34:18;14.00;99.90
12438;DHT22;6283;51.330;12.374;2023-10-09T09:36:55;14.00;99.90
12438;DHT22;6283;51.330;12.374;2023-10-09T09:39:31;14.00;99.90
12438;DHT22;6283;51.330;12.374;2023-10-09T09:41:59;13.90;99.90
12438;DHT22;6283;51.330;12.374;2023-10-09T09:44:39;14.00;99.90
12438;DHT22;6283;51.330;12.374;2023-10-09T09:47:14;14.20;99.90
12438;DHT22;6283;51.330;12.374;2023-10-09T09:49:53;14.30;99.90
12438;DHT22;6283;51.330;12.374;2023-10-09T09:52:31;13.90;99.90
12438;DHT22;6283;51.330;12.374;2023-10-09T09:55:09;14.10;99.90
12438;DHT22;6283;51.330;12.374;2023-10-09T09:57:48;14.20;99.90
12438;DHT22;6283;51.330;12.374;2023-10-09T10:00:22;14.40;99.90
12438;DHT22;6283;51.330;12.374;2023-10-09T10:03:14;14.60;99.90
12438;DHT22;6283;51.330;12.374;2023-10-09T10:05:44;14.50;99.90
12438;DHT22;6283;51.330;12.374;2023-10-09T10:08:22;14.70;99.90
12438;DHT22;6283;51.330;12.374;2023-10-09T10:10:56;14.90;99.90
12438;DHT22;6283;51.330;12.374;2023-10-09T10:13:54;14.90;99.90
12438;DHT22;6283;51.330;12.374;2023-10-09T10:16:24;14.70;99.90
12438;DHT22;6283;51.330;12.374;2023-10-09T10:21:46;14.90;99.90
12438;DHT22;6283;51.330;12.374;2023-10-09T10:35:21;15.20;99.90
12438;DHT22;6283;51.330;12.374;2023-10-09T10:38:00;15.00;99.90
12438;DHT22;6283;51.330;12.374;2023-10-09T10:40:41;15.10;99.90
12438;DHT22;6283;51.330;12.374;2023-10-09T10:43:18;14.90;99.90
12438;DHT22;6283;51.330;12.374;2023-10-09T10:46:14;14.80;99.90
12438;DHT22;6283;51.330;12.374;2023-10-09T10:48:41;14.90;99.90
12438;DHT22;6283;51.330;12.374;2023-10-09T10:51:15;14.80;99.90
12438;DHT22;6283;51.330;12.374;2023-10-09T10:53:53;14.90;99.90
12438;DHT22;6283;51.330;12.374;2023-10-09T10:56:25;15.00;99.90
12438;DHT22;6283;51.330;12.374;2023-10-09T10:59:01;14.90;99.90
12438;DHT22;6283;51.330;12.374;2023-10-09T11:01:38;14.90;99.90
12438;DHT22;6283;51.330;12.374;2023-10-09T11:04:16;15.10;99.90
12438;DHT22;6283;51.330;12.374;2023-10-09T11:06:54;14.70;99.90
12438;DHT22;6283;51.330;12.374;2023-10-09T11:09:26;14.80;99.90
12438;DHT22;6283;51.330;12.374;2023-10-09T11:12:05;15.10;99.90
12438;DHT22;6283;51.330;12.374;2023-10-09T11:15:00;14.80;99.90
12438;DHT22;6283;51.330;12.374;2023-10-09T11:17:33;14.70;99.90
12438;DHT22;6283;51.330;12.374;2023-10-09T11:20:04;14.90;99.90
12438;DHT22;6283;51.330;12.374;2023-10-09T11:22:51;15.00;99.90
12438;DHT22;6283;51.330;12.374;2023-10-09T11:25:43;14.90;99.90
12438;DHT22;6283;51.330;12.374;2023-10-09T11:28:22;14.90;99.90
12438;DHT22;6283;51.330;12.374;2023-10-09T11:31:17;14.80;99.90
12438;DHT22;6283;51.330;12.374;2023-10-09T11:33:52;14.90;99.90
12438;DHT22;6283;51.330;12.374;2023-10-09T11:36:20;15.10;99.90
12438;DHT22;6283;51.330;12.374;2023-10-09T11:38:57;14.90;99.90
12438;DHT22;6283;51.330;12.374;2023-10-09T11:41:42;14.80;99.90
12438;DHT22;6283;51.330;12.374;2023-10-09T11:44:10;14.90;99.90
12438;DHT22;6283;51.330;12.374;2023-10-09T11:47:02;14.90;99.90
12438;DHT22;6283;51.330;12.374;2023-10-09T11:49:55;14.80;99.90
12438;DHT22;6283;51.330;12.374;2023-10-09T11:52:30;14.90;99.90
12438;DHT22;6283;51.330;12.374;2023-10-09T11:55:11;15.00;99.90
12438;DHT22;6283;51.330;12.374;2023-10-09T11:57:42;15.00;99.90
12438;DHT22;6283;51.330;12.374;2023-10-09T12:00:08;14.70;99.90
12438;DHT22;6283;51.330;12.374;2023-10-09T12:02:50;14.80;99.90
12438;DHT22;6283;51.330;12.374;2023-10-09T12:05:16;15.00;99.90
12438;DHT22;6283;51.330;12.374;2023-10-09T12:07:47;14.90;99.90
12438;DHT22;6283;51.330;12.374;2023-10-09T12:10:23;14.70;99.90
12438;DHT22;6283;51.330;12.374;2023-10-09T12:12:54;14.80;99.90
12438;DHT22;6283;51.330;12.374;2023-10-09T12:15:24;14.80;99.90
12438;DHT22;6283;51.330;12.374;2023-10-09T12:17:50;14.80;99.90
12438;DHT22;6283;51.330;12.374;2023-10-09T12:20:18;14.90;1.40
12438;DHT22;6283;51.330;12.374;2023-10-09T12:23:00;14.60;1.00
12438;DHT22;6283;51.330;12.374;2023-10-09T12:25:27;14.90;1.00
12438;DHT22;6283;51.330;12.374;2023-10-09T12:28:00;14.80;1.00
12438;DHT22;6283;51.330;12.374;2023-10-09T12:30:28;14.90;1.00
12438;DHT22;6283;51.330;12.374;2023-10-09T12:32:57;14.70;1.00
12438;DHT22;6283;51.330;12.374;2023-10-09T12:35:26;14.80;1.00
12438;DHT22;6283;51.330;12.374;2023-10-09T12:37:54;14.90;1.00
12438;DHT22;6283;51.330;12.374;2023-10-09T12:40:22;14.80;1.00
12438;DHT22;6283;51.330;12.374;2023-10-09T12:42:54;14.90;1.00
12438;DHT22;6283;51.330;12.374;2023-10-09T12:45:21;14.70;1.00
12438;DHT22;6283;51.330;12.374;2023-10-09T12:47:58;14.90;1.00
12438;DHT22;6283;51.330;12.374;2023-10-09T12:50:27;14.80;1.00
12438;DHT22;6283;51.330;12.374;2023-10-09T12:52:57;14.80;1.00
12438;DHT22;6283;51.330;12.374;2023-10-09T12:55:27;14.90;1.00
12438;DHT22;6283;51.330;12.374;2023-10-09T12:58:00;14.80;1.00
12438;DHT22;6283;51.330;12.374;2023-10-09T13:00:27;14.70;1.00
12438;DHT22;6283;51.330;12.374;2023-10-09T13:02:52;14.90;1.00
12438;DHT22;6283;51.330;12.374;2023-10-09T13:05:18;14.90;1.00
12438;DHT22;6283;51.330;12.374;2023-10-09T13:07:52;14.80;1.00
12438;DHT22;6283;51.330;12.374;2023-10-09T13:10:19;14.70;1.00
12438;DHT22;6283;51.330;12.374;2023-10-09T13:12:45;15.00;1.00
12438;DHT22;6283;51.330;12.374;2023-10-09T13:15:11;14.90;1.00
12438;DHT22;6283;51.330;12.374;2023-10-09T13:17:37;14.80;1.00
12438;DHT22;6283;51.330;12.374;2023-10-09T13:20:04;14.70;1.00
12438;DHT22;6283;51.330;12.374;2023-10-09T13:22:42;14.80;1.00
12438;DHT22;6283;51.330;12.374;2023-10-09T13:25:11;14.70;1.00
12438;DHT22;6283;51.330;12.374;2023-10-09T13:27:50;14.60;1.00
12438;DHT22;6283;51.330;12.374;2023-10-09T13:30:18;14.70;1.00
12438;DHT22;6283;51.330;12.374;2023-10-09T13:32:50;14.80;1.00
12438;DHT22;6283;51.330;12.374;2023-10-09T13:35:20;14.70;1.00
12438;DHT22;6283;51.330;12.374;2023-10-09T13:37:53;14.90;1.00
12438;DHT22;6283;51.330;12.374;2023-10-09T13:40:22;15.10;1.00
12438;DHT22;6283;51.330;12.374;2023-10-09T13:42:55;14.90;1.00
12438;DHT22;6283;51.330;12.374;2023-10-09T13:45:27;14.70;1.00
12438;DHT22;6283;51.330;12.374;2023-10-09T13:47:56;15.00;1.00
12438;DHT22;6283;51.330;12.374;2023-10-09T13:50:25;14.80;1.00
12438;DHT22;6283;51.330;12.374;2023-10-09T13:52:57;15.00;1.00
12438;DHT22;6283;51.330;12.374;2023-10-09T13:55:23;15.10;1.00
12438;DHT22;6283;51.330;12.374;2023-10-09T13:57:57;14.90;1.00
12438;DHT22;6283;51.330;12.374;2023-10-09T14:00:23;14.90;1.00
12438;DHT22;6283;51.330;12.374;2023-10-09T14:03:00;15.00;1.00
12438;DHT22;6283;51.330;12.374;2023-10-09T14:05:37;14.90;1.00
12438;DHT22;6283;51.330;12.374;2023-10-09T14:08:10;14.90;1.00
12438;DHT22;6283;51.330;12.374;2023-10-09T14:10:37;14.80;1.00
12438;DHT22;6283;51.330;12.374;2023-10-09T14:13:04;14.80;1.00
12438;DHT22;6283;51.330;12.374;2023-10-09T14:15:37;15.00;1.00
12438;DHT22;6283;51.330;12.374;2023-10-09T14:18:06;14.90;1.00
12438;DHT22;6283;51.330;12.374;2023-10-09T14:20:34;14.90;1.00
12438;DHT22;6283;51.330;12.374;2023-10-09T14:23:01;15.00;1.00
12438;DHT22;6283;51.330;12.374;2023-10-09T14:25:36;14.90;1.00
12438;DHT22;6283;51.330;12.374;2023-10-09T14:28:09;15.00;1.00
12438;DHT22;6283;51.330;12.374;2023-10-09T14:30:36;15.10;1.00
12438;DHT22;6283;51.330;12.374;2023-10-09T14:33:13;15.00;1.00
12438;DHT22;6283;51.330;12.374;2023-10-09T14:35:44;15.00;1.00
12438;DHT22;6283;51.330;12.374;2023-10-09T14:38:10;15.20;1.00
12438;DHT22;6283;51.330;12.374;2023-10-09T14:40:46;15.20;1.00
12438;DHT22;6283;51.330;12.374;2023-10-09T14:43:13;14.90;1.00
12438;DHT22;6283;51.330;12.374;2023-10-09T14:45:46;14.80;1.00
12438;DHT22;6283;51.330;12.374;2023-10-09T14:48:17;14.90;1.00
12438;DHT22;6283;51.330;12.374;2023-10-09T14:50:55;14.90;1.00
12438;DHT22;6283;51.330;12.374;2023-10-09T14:53:30;15.00;1.00
12438;DHT22;6283;51.330;12.374;2023-10-09T14:55:56;14.90;1.00
12438;DHT22;6283;51.330;12.374;2023-10-09T14:58:22;15.00;1.00
12438;DHT22;6283;51.330;12.374;2023-10-09T15:00:51;15.10;1.00
12438;DHT22;6283;51.330;12.374;2023-10-09T15:03:17;15.00;1.00
12438;DHT22;6283;51.330;12.374;2023-10-09T15:05:48;14.90;1.00
12438;DHT22;6283;51.330;12.374;2023-10-09T15:08:14;14.90;1.00
12438;DHT22;6283;51.330;12.374;2023-10-09T15:10:50;15.20;1.00
12438;DHT22;6283;51.330;12.374;2023-10-09T15:13:17;15.10;1.00
12438;DHT22;6283;51.330;12.374;2023-10-09T15:15:44;14.90;1.00
12438;DHT22;6283;51.330;12.374;2023-10-09T15:18:10;15.00;1.00
12438;DHT22;6283;51.330;12.374;2023-10-09T15:20:39;15.10;1.00
12438;DHT22;6283;51.330;12.374;2023-10-09T15:23:09;15.20;1.00
12438;DHT22;6283;51.330;12.374;2023-10-09T15:25:35;15.20;1.00
12438;DHT22;6283;51.330;12.374;2023-10-09T15:28:05;15.00;1.00
12438;DHT22;6283;51.330;12.374;2023-10-09T15:30:33;15.10;1.00
12438;DHT22;6283;51.330;12.374;2023-10-09T15:32:58;15.20;1.00
12438;DHT22;6283;51.330;12.374;2023-10-09T15:35:24;15.00;1.00
12438;DHT22;6283;51.330;12.374;2023-10-09T15:37:54;14.90;1.00
12438;DHT22;6283;51.330;12.374;2023-10-09T15:40:19;15.00;1.00
12438;DHT22;6283;51.330;12.374;2023-10-09T15:42:49;15.00;1.00
12438;DHT22;6283;51.330;12.374;2023-10-09T15:45:17;15.10;1.00
12438;DHT22;6283;51.330;12.374;2023-10-09T15:47:42;15.10;1.00
12438;DHT22;6283;51.330;12.374;2023-10-09T15:50:10;14.90;1.00
12438;DHT22;6283;51.330;12.374;2023-10-09T15:52:38;15.20;1.00
12438;DHT22;6283;51.330;12.374;2023-10-09T15:55:06;15.00;1.00
12438;DHT22;6283;51.330;12.374;2023-10-09T15:57:39;14.90;1.00
12438;DHT22;6283;51.330;12.374;2023-10-09T16:00:06;15.00;1.00
12438;DHT22;6283;51.330;12.374;2023-10-09T16:02:42;15.00;1.00
12438;DHT22;6283;51.330;12.374;2023-10-09T16:05:09;15.20;1.00
12438;DHT22;6283;51.330;12.374;2023-10-09T16:07:40;15.10;1.00
12438;DHT22;6283;51.330;12.374;2023-10-09T16:10:07;15.10;1.00
12438;DHT22;6283;51.330;12.374;2023-10-09T16:12:39;15.00;1.00
12438;DHT22;6283;51.330;12.374;2023-10-09T16:15:05;15.30;1.00
12438;DHT22;6283;51.330;12.374;2023-10-09T16:17:34;15.40;1.00
12438;DHT22;6283;51.330;12.374;2023-10-09T16:20:04;15.10;1.00
12438;DHT22;6283;51.330;12.374;2023-10-09T16:22:41;15.20;1.00
12438;DHT22;6283;51.330;12.374;2023-10-09T16:25:07;15.20;1.00
12438;DHT22;6283;51.330;12.374;2023-10-09T16:27:35;15.30;1.00
12438;DHT22;6283;51.330;12.374;2023-10-09T16:30:01;15.10;1.00
12438;DHT22;6283;51.330;12.374;2023-10-09T16:32:31;15.20;1.00
12438;DHT22;6283;51.330;12.374;2023-10-09T16:34:57;15.20;1.00
12438;DHT22;6283;51.330;12.374;2023-10-09T16:37:26;15.10;1.00
12438;DHT22;6283;51.330;12.374;2023-10-09T16:39:52;15.00;1.00
12438;DHT22;6283;51.330;12.374;2023-10-09T16:42:19;15.20;1.00